Terminal Aerodrome Forecast
Issued by NWS

Home | Current Version | Previous Version | Text Only | Print | Product List | Glossary On
Versions: 1 2 3 4 5 6 7 8 9 10 11 12 13 14 15 16
000
FTUS43 KPAH 241731
TAFCGI
TAF
KCGI 241731Z 2418/2518 11005KT P6SM FEW040
     FM250100 09005KT P6SM FEW250
     FM251200 VRB02KT P6SM SCT040 BKN250
     FM251500 21005KT P6SM BKN040 PROB30 2515/2518 P6SM -TSRA
      BKN040CB=

USA.gov is the U.S. government's official web portal to all federal, state and local government web resources and services.